MST,Max TemperatureF,Mean TemperatureF,Min TemperatureF,Max Dew PointF,MeanDew PointF,Min DewpointF,Max Humidity, Mean Humidity, Min Humidity, Max Sea Level PressureIn, Mean Sea Level PressureIn, Min Sea Level PressureIn, Max VisibilityMiles, Mean VisibilityMiles, Min VisibilityMiles, Max Wind SpeedMPH, Mean Wind SpeedMPH, Max Gust SpeedMPH,PrecipitationIn, CloudCover, Events, WindDirDegrees
2013-8-1,78,68,59,59,53,50,83,58,39,30.35,30.30,30.26,10,10,7,21,9,29,0.00,3,Rain-Thunderstorm,200
2013-8-2,75,66,57,57,55,54,94,74,47,30.33,30.28,30.23,10,9,2,21,8,36,0.37,3,Rain-Thunderstorm,196
2013-8-3,78,66,53,59,52,48,88,65,34,30.34,30.30,30.26,10,10,4,21,6,24,0.01,1,Rain-Thunderstorm,175
2013-8-4,77,67,57,57,53,48,88,62,36,30.34,30.31,30.28,10,9,3,15,4,21,0.13,2,Rain-Thunderstorm,36
2013-8-5,75,64,53,57,53,48,88,70,41,30.37,30.29,30.20,10,10,2,20,5,23,0.14,3,Rain-Thunderstorm,224
2013-8-6,66,60,55,57,55,50,94,83,64,30.30,30.26,30.24,10,9,2,16,5,17,0.29,6,Rain-Thunderstorm,257
2013-8-7,73,63,53,55,51,48,94,68,41,30.30,30.26,30.22,10,10,5,13,5,18,0.02,4,Rain-Thunderstorm,280
2013-8-8,78,68,57,50,42,36,77,41,22,30.28,30.23,30.18,10,10,10,14,8,18,0.00,0,,210
2013-8-9,82,66,50,41,33,25,62,32,14,30.28,30.24,30.21,10,10,8,16,7,22,0.00,0,,183
2013-8-10,80,68,55,48,39,34,55,36,21,30.35,30.29,30.24,10,10,9,16,7,26,0.00,1,,197
2013-8-11,75,63,51,55,49,45,82,60,36,30.33,30.30,30.23,10,9,3,20,4,21,0.27,2,Rain-Thunderstorm,146
2013-8-12,80,66,53,55,49,43,94,55,26,30.31,30.27,30.23,10,10,10,13,7,20,0.00,1,Rain,201
2013-8-13,82,70,57,50,45,39,72,45,21,30.35,30.29,30.24,10,10,9,10,6,,0.00,0,,210
2013-8-14,82,68,55,46,43,37,72,40,23,30.33,30.29,30.24,10,10,4,17,4,22,0.00,0,Thunderstorm,195
2013-8-15,84,72,59,50,47,41,67,47,22,30.36,30.32,30.28,10,10,2,22,11,29,0.00,1,Thunderstorm,191
2013-8-16,84,72,59,48,46,41,67,42,22,30.36,30.33,30.28,10,8,2,15,5,,0.00,1,Thunderstorm,187
2013-8-17,84,72,60,54,47,43,77,47,25,30.38,30.33,30.26,10,9,5,20,7,34,0.00,1,Rain-Thunderstorm,189
2013-8-18,84,70,57,54,47,39,88,45,20,30.34,30.30,30.24,8,6,5,16,7,22,0.00,2,Thunderstorm,215
2013-8-19,84,72,59,57,47,45,67,44,25,30.35,30.29,30.22,8,6,0,21,6,26,0.00,2,Rain-Thunderstorm,321
2013-8-20,84,70,55,54,46,37,77,45,20,30.30,30.25,30.18,8,7,4,24,7,29,0.00,2,Rain-Thunderstorm,217
2013-8-21,80,70,59,54,50,46,82,56,30,30.34,30.27,30.22,9,7,5,20,10,24,0.00,2,Thunderstorm,206
2013-8-22,77,65,53,57,53,48,88,71,39,30.33,30.28,30.21,8,6,1,20,2,25,0.01,1,Rain-Thunderstorm,179
2013-8-23,78,66,53,54,49,43,88,59,28,30.25,30.21,30.16,9,7,5,20,6,24,0.00,3,Rain-Thunderstorm,180
2013-8-24,71,63,55,59,55,48,94,81,52,30.30,30.26,30.21,8,6,0,16,5,29,0.01,6,Rain-Thunderstorm,146
2013-8-25,73,65,57,59,56,52,100,82,50,30.38,30.31,30.28,10,6,0,17,7,28,0.00,5,Rain-Thunderstorm,161
2013-8-26,78,68,57,61,56,52,100,75,39,30.34,30.30,30.23,10,7,0,17,4,23,0.00,5,Fog-Thunderstorm,46
2013-8-27,75,66,57,61,56,46,100,80,47,30.31,30.27,30.20,10,9,0,18,3,22,0.84,5,Rain-Thunderstorm,47
2013-8-28,75,64,53,57,53,50,94,71,41,30.32,30.27,30.23,10,10,6,14,5,18,0.00,2,Rain-Thunderstorm,192
2013-8-29,75,66,57,59,56,54,100,75,53,30.40,30.34,30.30,10,9,2,20,8,26,0.52,5,Rain-Thunderstorm,205
2013-8-30,71,64,57,63,57,55,100,86,57,30.38,30.34,30.29,10,10,6,15,7,17,0.12,5,Rain-Thunderstorm,185
2013-8-31,77,66,55,57,56,54,94,74,44,30.31,30.27,30.20,10,10,10,14,6,22,0.00,1,Thunderstorm,224